createdAt,value
2023-05-01T00:00:29.506Z,9.00
2023-05-01T00:01:29.504Z,10.20
2023-05-01T00:02:29.554Z,9.60
2023-05-01T00:03:29.603Z,10.60
2023-05-01T00:04:29.474Z,10.40
2023-05-01T00:05:29.446Z,11.00
2023-05-01T00:06:29.482Z,11.10
2023-05-01T00:07:29.465Z,9.80
2023-05-01T00:08:29.413Z,10.30
2023-05-01T00:09:29.389Z,9.50
2023-05-01T00:10:29.363Z,9.50
2023-05-01T00:11:29.385Z,9.60
2023-05-01T00:12:29.363Z,9.20
2023-05-01T00:13:29.343Z,10.00
2023-05-01T00:14:29.315Z,10.00
2023-05-01T00:15:29.334Z,9.50
2023-05-01T00:16:29.343Z,10.10
2023-05-01T00:17:29.328Z,9.70
2023-05-01T00:18:29.282Z,9.70
2023-05-01T00:19:29.261Z,10.80
2023-05-01T00:20:29.252Z,9.60
2023-05-01T00:21:29.238Z,10.80
2023-05-01T00:22:29.232Z,10.70
2023-05-01T00:23:29.195Z,10.20
2023-05-01T00:24:29.183Z,9.70
2023-05-01T00:25:29.211Z,10.00
2023-05-01T00:26:29.289Z,10.00
2023-05-01T00:27:29.160Z,10.20
2023-05-01T00:28:29.154Z,10.80
2023-05-01T00:29:29.139Z,10.60
2023-05-01T00:30:29.140Z,10.00
2023-05-01T00:31:29.160Z,9.80
2023-05-01T00:32:29.212Z,9.80
2023-05-01T00:33:29.085Z,9.80
2023-05-01T00:34:29.056Z,10.10
2023-05-01T00:35:29.060Z,10.60
2023-05-01T00:36:29.048Z,11.30
2023-05-01T00:37:29.029Z,11.00
2023-05-01T00:38:29.010Z,11.20
2023-05-01T00:39:29.024Z,11.00
2023-05-01T00:40:29.026Z,11.60
2023-05-01T00:41:28.977Z,11.20
2023-05-01T00:42:28.959Z,11.10
2023-05-01T00:43:28.966Z,10.50
2023-05-01T00:44:28.925Z,10.60
2023-05-01T00:45:29.036Z,11.30
2023-05-01T00:46:29.062Z,12.10
2023-05-01T00:47:28.914Z,11.80
2023-05-01T00:48:28.881Z,11.60
2023-05-01T00:49:28.888Z,10.90
2023-05-01T00:50:28.863Z,11.30
2023-05-01T00:51:28.846Z,10.90
2023-05-01T00:52:28.833Z,11.30
2023-05-01T00:53:28.828Z,11.10
2023-05-01T00:54:28.815Z,10.70
2023-05-01T00:55:28.813Z,9.90
2023-05-01T00:56:28.798Z,9.80
2023-05-01T00:57:28.779Z,10.80
2023-05-01T00:58:28.762Z,10.90
2023-05-01T00:59:28.749Z,11.00
2023-05-01T01:00:28.760Z,10.70
2023-05-01T01:01:28.970Z,10.50
2023-05-01T01:02:28.738Z,10.20
2023-05-01T01:03:28.709Z,10.40
2023-05-01T01:04:28.746Z,10.90
2023-05-01T01:05:28.701Z,11.60
2023-05-01T01:06:28.716Z,9.70
2023-05-01T01:07:28.642Z,9.70
2023-05-01T01:08:30.590Z,9.70
2023-05-01T01:09:28.624Z,8.80
2023-05-01T01:10:28.613Z,9.30
2023-05-01T01:11:28.588Z,9.80
2023-05-01T01:12:28.594Z,9.90
2023-05-01T01:13:28.619Z,10.10
2023-05-01T01:14:28.552Z,9.80
2023-05-01T01:15:28.541Z,9.70
2023-05-01T01:16:28.540Z,9.00
2023-05-01T01:17:28.576Z,9.10
2023-05-01T01:18:28.494Z,9.00
2023-05-01T01:19:28.488Z,8.80
2023-05-01T01:20:28.488Z,8.60
2023-05-01T01:21:28.494Z,8.70
2023-05-01T01:22:28.489Z,8.70
2023-05-01T01:23:28.450Z,8.50
2023-05-01T01:24:28.433Z,8.10
2023-05-01T01:25:28.439Z,8.70
2023-05-01T01:26:28.411Z,8.50
2023-05-01T01:27:28.424Z,8.20
2023-05-01T01:28:28.362Z,7.80
2023-05-01T01:29:28.366Z,8.30
2023-05-01T01:30:28.385Z,8.40
2023-05-01T01:31:28.363Z,8.10
2023-05-01T01:32:28.360Z,8.30
2023-05-01T01:33:28.314Z,8.40
2023-05-01T01:34:28.311Z,8.20
2023-05-01T01:35:28.309Z,8.10
2023-05-01T01:36:28.293Z,8.70
2023-05-01T01:37:28.252Z,8.70
2023-05-01T01:38:28.269Z,8.30
2023-05-01T01:39:28.233Z,8.30
2023-05-01T01:40:28.247Z,7.80
2023-05-01T01:41:28.197Z,8.70
2023-05-01T01:42:28.200Z,9.60
2023-05-01T01:43:28.202Z,9.20
2023-05-01T01:44:28.179Z,8.20
2023-05-01T01:45:28.166Z,8.80
2023-05-01T01:46:28.191Z,8.60
2023-05-01T01:47:28.289Z,8.60
2023-05-01T01:48:28.149Z,9.10
2023-05-01T01:49:28.101Z,9.30
2023-05-01T01:50:28.110Z,8.70
2023-05-01T01:51:28.091Z,9.00
2023-05-01T01:52:28.066Z,9.30
2023-05-01T01:53:28.067Z,8.80
2023-05-01T01:54:28.053Z,9.30
2023-05-01T01:55:28.046Z,9.20
2023-05-01T01:56:28.016Z,9.10
2023-05-01T01:57:27.997Z,8.20
2023-05-01T01:58:27.997Z,7.70
2023-05-01T01:59:27.990Z,8.40
2023-05-01T02:00:27.985Z,8.40
2023-05-01T02:01:27.999Z,8.10
2023-05-01T02:02:28.150Z,8.50
2023-05-01T02:03:28.040Z,8.00
2023-05-01T02:04:27.918Z,8.40
2023-05-01T02:05:27.910Z,7.70
2023-05-01T02:06:27.930Z,7.50
2023-05-01T02:07:27.886Z,7.90
2023-05-01T02:08:27.882Z,7.70
2023-05-01T02:09:27.842Z,8.30
2023-05-01T02:10:27.853Z,7.70
2023-05-01T02:11:27.819Z,8.00
2023-05-01T02:12:27.810Z,7.40
2023-05-01T02:13:27.808Z,8.10
2023-05-01T02:14:27.795Z,7.50
2023-05-01T02:15:27.781Z,7.40
2023-05-01T02:16:27.824Z,7.70
2023-05-01T02:17:27.767Z,7.50
2023-05-01T02:18:27.752Z,7.40
2023-05-01T02:19:27.730Z,8.30
2023-05-01T02:20:27.724Z,8.20
2023-05-01T02:21:27.697Z,8.00
2023-05-01T02:22:27.684Z,7.70
2023-05-01T02:23:27.688Z,7.80
2023-05-01T02:24:27.663Z,7.80
2023-05-01T02:25:29.560Z,7.90
2023-05-01T02:26:27.652Z,7.30
2023-05-01T02:27:27.638Z,7.70
2023-05-01T02:28:27.606Z,9.40
2023-05-01T02:29:27.604Z,8.50
2023-05-01T02:30:27.612Z,9.00
2023-05-01T02:31:27.610Z,9.60
2023-05-01T02:32:27.591Z,11.30
2023-05-01T02:33:27.545Z,11.80
2023-05-01T02:34:27.539Z,9.80
2023-05-01T02:35:27.522Z,9.40
2023-05-01T02:36:27.519Z,9.50
2023-05-01T02:37:27.522Z,8.60
2023-05-01T02:38:27.484Z,8.50
2023-05-01T02:39:27.472Z,7.90
2023-05-01T02:40:27.477Z,8.00
2023-05-01T02:41:27.438Z,8.10
2023-05-01T02:42:27.446Z,8.30
2023-05-01T02:43:27.441Z,7.80
2023-05-01T02:44:27.410Z,7.30
2023-05-01T02:45:27.430Z,7.80
2023-05-01T02:46:27.517Z,8.60
2023-05-01T02:47:27.537Z,7.90
2023-05-01T02:48:27.371Z,8.10
2023-05-01T02:49:27.338Z,8.00
2023-05-01T02:50:27.410Z,8.10
2023-05-01T02:51:27.326Z,7.80
2023-05-01T02:52:27.322Z,8.30
2023-05-01T02:53:27.315Z,8.40
2023-05-01T02:54:27.273Z,8.60
2023-05-01T02:55:27.291Z,8.20
2023-05-01T02:56:27.269Z,8.90
2023-05-01T02:57:27.237Z,8.30
2023-05-01T02:58:27.255Z,8.70
2023-05-01T02:59:27.206Z,8.60
2023-05-01T03:00:27.241Z,8.80
2023-05-01T03:01:27.206Z,8.30
2023-05-01T03:02:27.189Z,8.00
2023-05-01T03:03:27.155Z,8.30
2023-05-01T03:04:27.207Z,7.50
2023-05-01T03:05:27.144Z,7.60
2023-05-01T03:06:27.154Z,7.50
2023-05-01T03:07:27.114Z,7.40
2023-05-01T03:08:27.125Z,8.10
2023-05-01T03:09:27.088Z,9.30
2023-05-01T03:10:27.088Z,8.50
2023-05-01T03:11:27.061Z,9.10
2023-05-01T03:12:27.070Z,10.10
2023-05-01T03:13:27.043Z,9.70
2023-05-01T03:14:27.023Z,8.30
2023-05-01T03:15:27.032Z,7.80
2023-05-01T03:16:27.099Z,7.80
2023-05-01T03:17:27.027Z,7.40
2023-05-01T03:18:26.974Z,7.90
2023-05-01T03:19:26.953Z,8.80
2023-05-01T03:20:27.603Z,7.40
2023-05-01T03:21:26.946Z,7.50
2023-05-01T03:22:26.928Z,7.00
2023-05-01T03:23:26.906Z,7.50
2023-05-01T03:24:26.895Z,7.00
2023-05-01T03:25:26.882Z,7.60
2023-05-01T03:26:26.862Z,7.10
2023-05-01T03:27:26.863Z,7.80
2023-05-01T03:28:26.850Z,8.00
2023-05-01T03:29:26.817Z,7.90
2023-05-01T03:30:26.915Z,7.20
2023-05-01T03:31:26.870Z,7.80
2023-05-01T03:32:26.899Z,7.60
2023-05-01T03:33:26.790Z,7.70
2023-05-01T03:34:26.769Z,8.10
2023-05-01T03:35:26.844Z,8.10
2023-05-01T03:36:26.722Z,7.80
2023-05-01T03:37:26.720Z,8.50
2023-05-01T03:38:26.724Z,7.90
2023-05-01T03:39:26.694Z,7.40
2023-05-01T03:40:26.690Z,8.10
2023-05-01T03:41:26.656Z,7.50
2023-05-01T03:42:26.651Z,7.30
2023-05-01T03:43:26.644Z,8.30
2023-05-01T03:44:26.627Z,8.30
2023-05-01T03:45:26.626Z,8.40
2023-05-01T03:46:26.644Z,8.30
2023-05-01T03:47:26.625Z,7.60
2023-05-01T03:48:26.592Z,7.20
2023-05-01T03:49:26.557Z,7.80
2023-05-01T03:50:26.561Z,8.10
2023-05-01T03:51:26.544Z,7.90
2023-05-01T03:52:26.567Z,8.80
2023-05-01T03:53:26.509Z,9.40
2023-05-01T03:54:26.505Z,7.90
2023-05-01T03:55:26.514Z,8.10
2023-05-01T03:56:26.487Z,9.00
2023-05-01T03:57:26.459Z,7.70
2023-05-01T03:58:26.457Z,7.50
2023-05-01T03:59:26.453Z,7.20
2023-05-01T04:00:26.448Z,7.80
2023-05-01T04:01:26.432Z,6.80
2023-05-01T04:02:26.465Z,7.90
2023-05-01T04:03:26.594Z,7.60
2023-05-01T04:04:26.437Z,7.50
2023-05-01T04:05:26.359Z,7.80
2023-05-01T04:06:26.388Z,7.40
2023-05-01T04:07:26.351Z,7.60
2023-05-01T04:08:26.332Z,7.70
2023-05-01T04:09:26.329Z,7.90
2023-05-01T04:10:26.300Z,7.40
2023-05-01T04:11:26.272Z,7.10
2023-05-01T04:12:26.289Z,7.20
2023-05-01T04:13:26.267Z,7.30
2023-05-01T04:14:26.280Z,7.60
2023-05-01T04:15:26.232Z,7.70
2023-05-01T04:16:26.243Z,7.40
2023-05-01T04:17:26.204Z,8.40
2023-05-01T04:18:26.214Z,8.70
2023-05-01T04:19:26.191Z,9.30
2023-05-01T04:20:26.188Z,8.10
2023-05-01T04:21:26.154Z,8.10
2023-05-01T04:22:26.151Z,7.50
2023-05-01T04:23:26.147Z,7.90
2023-05-01T04:24:26.134Z,7.90
2023-05-01T04:25:26.099Z,9.30
2023-05-01T04:26:26.091Z,8.40
2023-05-01T04:27:26.077Z,8.40
2023-05-01T04:28:26.084Z,7.60
2023-05-01T04:29:26.096Z,8.40
2023-05-01T04:30:26.039Z,8.30
2023-05-01T04:31:26.096Z,7.80
2023-05-01T04:32:26.055Z,7.80
2023-05-01T04:33:26.004Z,9.10
2023-05-01T04:34:26.016Z,9.40
2023-05-01T04:35:26.015Z,10.70
2023-05-01T04:36:25.960Z,10.10
2023-05-01T04:37:25.962Z,9.60
2023-05-01T04:38:25.947Z,9.60
2023-05-01T04:39:25.952Z,9.00
2023-05-01T04:40:25.926Z,9.10
2023-05-01T04:41:25.904Z,7.90
2023-05-01T04:42:25.898Z,8.10
2023-05-01T04:43:25.859Z,8.20
2023-05-01T04:44:25.880Z,8.90
2023-05-01T04:45:25.839Z,8.90
2023-05-01T04:46:25.877Z,9.00
2023-05-01T04:47:25.836Z,9.60
2023-05-01T04:48:25.847Z,10.90
2023-05-01T04:49:25.807Z,9.80
2023-05-01T04:50:25.786Z,9.60
2023-05-01T04:51:25.760Z,8.60
2023-05-01T04:52:25.771Z,9.00
2023-05-01T04:53:25.741Z,9.90
2023-05-01T04:54:25.743Z,9.40
2023-05-01T04:55:25.708Z,10.40
2023-05-01T04:56:25.731Z,9.10
2023-05-01T04:57:25.704Z,8.60
2023-05-01T04:58:25.667Z,8.70
2023-05-01T04:59:25.692Z,8.80
2023-05-01T05:00:25.727Z,9.10
2023-05-01T05:01:25.667Z,9.60
2023-05-01T05:02:25.718Z,9.20
2023-05-01T05:03:25.669Z,10.80
2023-05-01T05:04:25.618Z,10.30
2023-05-01T05:05:25.605Z,10.50
2023-05-01T05:06:25.637Z,10.50
2023-05-01T05:07:25.565Z,10.40
2023-05-01T05:08:25.546Z,10.10
2023-05-01T05:09:25.556Z,10.70
2023-05-01T05:10:25.530Z,9.70
2023-05-01T05:11:25.500Z,9.60
2023-05-01T05:12:25.499Z,10.60
2023-05-01T05:13:25.479Z,10.50
2023-05-01T05:14:25.510Z,11.20
2023-05-01T05:15:25.471Z,11.10
2023-05-01T05:16:25.545Z,11.10
2023-05-01T05:17:25.437Z,11.00
2023-05-01T05:18:25.466Z,11.10
2023-05-01T05:19:25.421Z,12.10
2023-05-01T05:20:25.405Z,11.30
2023-05-01T05:21:25.389Z,10.50
2023-05-01T05:22:25.384Z,11.00
2023-05-01T05:23:25.367Z,11.90
2023-05-01T05:24:25.364Z,11.80
2023-05-01T05:25:25.431Z,12.10
2023-05-01T05:26:25.309Z,12.20
2023-05-01T05:27:25.344Z,12.60
2023-05-01T05:28:25.285Z,13.10
2023-05-01T05:29:25.297Z,12.00
2023-05-01T05:30:25.272Z,15.50
2023-05-01T05:31:25.277Z,16.00
2023-05-01T05:32:25.401Z,16.30
2023-05-01T05:33:25.286Z,14.70
2023-05-01T05:34:25.236Z,14.80
2023-05-01T05:35:25.191Z,13.80
2023-05-01T05:36:25.195Z,14.00
2023-05-01T05:37:25.162Z,15.40
2023-05-01T05:38:25.174Z,15.20
2023-05-01T05:39:25.190Z,16.50
2023-05-01T05:40:25.148Z,18.00
2023-05-01T05:41:25.134Z,19.00
2023-05-01T05:42:25.137Z,20.10
2023-05-01T05:43:27.848Z,21.00
2023-05-01T05:44:25.091Z,22.80
2023-05-01T05:45:25.067Z,23.40
2023-05-01T05:46:25.110Z,23.20
2023-05-01T05:47:25.050Z,22.40
2023-05-01T05:48:25.083Z,23.00
2023-05-01T05:49:25.159Z,24.00
2023-05-01T05:50:25.015Z,24.70
2023-05-01T05:51:24.979Z,24.80
2023-05-01T05:52:24.998Z,25.10
2023-05-01T05:53:26.150Z,24.90
2023-05-01T05:54:24.963Z,24.80
2023-05-01T05:55:24.930Z,26.30
2023-05-01T05:56:24.936Z,25.80
2023-05-01T05:57:24.918Z,26.00
2023-05-01T05:58:24.915Z,26.10
2023-05-01T05:59:24.904Z,25.20
2023-05-01T06:00:24.873Z,25.10
2023-05-01T06:01:25.026Z,25.80
2023-05-01T06:02:24.884Z,26.30
2023-05-01T06:03:25.149Z,25.70
2023-05-01T06:04:24.835Z,24.90
2023-05-01T06:05:24.832Z,25.90
2023-05-01T06:06:24.826Z,26.30
2023-05-01T06:07:24.804Z,26.20
2023-05-01T06:08:24.831Z,25.90
2023-05-01T06:09:24.780Z,26.10
2023-05-01T06:10:24.748Z,27.70
2023-05-01T06:11:24.732Z,28.90
2023-05-01T06:12:24.718Z,28.40
2023-05-01T06:13:24.710Z,27.10
2023-05-01T06:14:24.706Z,28.90
2023-05-01T06:15:24.838Z,29.10
2023-05-01T06:16:24.719Z,28.10
2023-05-01T06:17:24.649Z,27.80
2023-05-01T06:18:24.633Z,29.40
2023-05-01T06:19:24.657Z,29.00
2023-05-01T06:20:24.609Z,27.70
2023-05-01T06:21:24.615Z,28.20
2023-05-01T06:22:24.594Z,28.70
2023-05-01T06:23:24.606Z,29.60
2023-05-01T06:24:24.580Z,29.00
2023-05-01T06:25:24.551Z,29.10
2023-05-01T06:26:24.555Z,28.50
2023-05-01T06:27:24.529Z,29.30
2023-05-01T06:28:24.500Z,29.70
2023-05-01T06:29:24.510Z,30.30
2023-05-01T06:30:24.498Z,30.10
2023-05-01T06:31:24.500Z,31.00
2023-05-01T06:32:24.482Z,30.70
2023-05-01T06:33:24.440Z,29.80
2023-05-01T06:34:24.448Z,31.20
2023-05-01T06:35:24.428Z,32.60
2023-05-01T06:36:24.398Z,33.40
2023-05-01T06:37:24.379Z,33.60
2023-05-01T06:38:26.303Z,33.60
2023-05-01T06:39:24.399Z,36.20
2023-05-01T06:40:24.553Z,36.70
2023-05-01T06:41:24.326Z,38.50
2023-05-01T06:42:24.323Z,37.40
2023-05-01T06:43:24.306Z,39.00
2023-05-01T06:44:24.305Z,37.90
2023-05-01T06:45:24.316Z,37.60
2023-05-01T06:46:24.328Z,38.30
2023-05-01T06:47:24.378Z,39.80
2023-05-01T06:48:24.239Z,38.70
2023-05-01T06:49:24.267Z,37.60
2023-05-01T06:50:24.232Z,38.00
2023-05-01T06:51:24.215Z,39.70
2023-05-01T06:52:24.187Z,38.30
2023-05-01T06:53:24.202Z,38.80
2023-05-01T06:54:24.213Z,39.50
2023-05-01T06:55:24.160Z,38.60
2023-05-01T06:56:24.137Z,39.60
2023-05-01T06:57:24.129Z,39.20
2023-05-01T06:58:24.700Z,40.30
2023-05-01T06:59:24.109Z,39.00
2023-05-01T07:00:24.091Z,40.00
2023-05-01T07:01:24.129Z,41.20
2023-05-01T07:02:24.112Z,42.30
2023-05-01T07:03:24.078Z,40.30
2023-05-01T07:04:24.102Z,42.30
2023-05-01T07:05:24.029Z,42.70
2023-05-01T07:06:24.051Z,40.40
2023-05-01T07:07:24.006Z,43.10
2023-05-01T07:08:23.989Z,41.00
2023-05-01T07:09:23.986Z,41.70
2023-05-01T07:10:23.960Z,41.10
2023-05-01T07:11:26.485Z,42.30
2023-05-01T07:12:23.929Z,43.20
2023-05-01T07:13:23.941Z,41.20
2023-05-01T07:14:23.938Z,40.20
2023-05-01T07:15:23.888Z,39.70
2023-05-01T07:16:23.917Z,39.40
2023-05-01T07:17:23.897Z,40.60
2023-05-01T07:18:23.876Z,40.30
2023-05-01T07:19:23.857Z,37.80
2023-05-01T07:20:23.822Z,37.50
2023-05-01T07:21:23.837Z,38.30
2023-05-01T07:22:23.809Z,40.90
2023-05-01T07:23:23.782Z,38.20
2023-05-01T07:24:23.826Z,38.90
2023-05-01T07:25:23.765Z,39.70
2023-05-01T07:26:23.766Z,39.30
2023-05-01T07:27:23.750Z,42.40
2023-05-01T07:28:23.711Z,40.50
2023-05-01T07:29:23.752Z,39.10
2023-05-01T07:30:23.690Z,39.00
2023-05-01T07:31:23.725Z,39.00
2023-05-01T07:32:23.666Z,38.80
2023-05-01T07:33:23.749Z,38.60
2023-05-01T07:34:23.661Z,37.70
2023-05-01T07:35:23.637Z,36.70
2023-05-01T07:36:23.650Z,34.30
2023-05-01T07:37:23.614Z,34.50
2023-05-01T07:38:23.595Z,34.00
2023-05-01T07:39:23.583Z,33.40
2023-05-01T07:40:23.563Z,34.60
2023-05-01T07:41:23.578Z,35.30
2023-05-01T07:42:23.542Z,35.90
2023-05-01T07:43:23.536Z,35.40
2023-05-01T07:44:23.523Z,36.50
2023-05-01T07:45:23.495Z,35.80
2023-05-01T07:46:23.548Z,36.50
2023-05-01T07:47:23.516Z,35.70
2023-05-01T07:48:23.474Z,35.60
2023-05-01T07:49:23.475Z,35.50
2023-05-01T07:50:23.448Z,35.10
2023-05-01T07:51:23.415Z,35.10
2023-05-01T07:52:23.417Z,33.90
2023-05-01T07:53:23.419Z,36.00
2023-05-01T07:54:23.388Z,35.60
2023-05-01T07:55:23.372Z,34.90
2023-05-01T07:56:23.360Z,33.80
2023-05-01T07:57:23.360Z,35.70
2023-05-01T07:58:23.330Z,36.70
2023-05-01T07:59:23.386Z,35.00
2023-05-01T08:00:23.304Z,35.80
2023-05-01T08:01:23.298Z,35.60
2023-05-01T08:02:23.322Z,35.30
2023-05-01T08:03:23.511Z,37.10
2023-05-01T08:04:23.490Z,36.60
2023-05-01T08:05:23.255Z,36.50
2023-05-01T08:06:23.287Z,35.10
2023-05-01T08:07:23.213Z,34.10
2023-05-01T08:08:23.214Z,33.30
2023-05-01T08:09:23.234Z,35.40
2023-05-01T08:10:23.219Z,32.80
2023-05-01T08:11:23.193Z,31.30
2023-05-01T08:12:23.149Z,31.70
2023-05-01T08:13:23.174Z,34.40
2023-05-01T08:14:23.140Z,33.90
2023-05-01T08:15:23.116Z,36.00
2023-05-01T08:16:23.128Z,32.70
2023-05-01T08:17:23.114Z,31.70
2023-05-01T08:18:23.091Z,27.00
2023-05-01T08:19:23.082Z,26.80
2023-05-01T08:20:23.092Z,28.00
2023-05-01T08:21:23.064Z,31.20
2023-05-01T08:22:23.042Z,27.30
2023-05-01T08:23:23.029Z,28.30
2023-05-01T08:24:23.283Z,26.60
2023-05-01T08:25:23.004Z,24.70
2023-05-01T08:26:23.023Z,24.10
2023-05-01T08:27:23.000Z,23.40
2023-05-01T08:28:22.961Z,27.20
2023-05-01T08:29:22.981Z,24.20
2023-05-01T08:30:22.981Z,24.10
2023-05-01T08:31:22.925Z,27.10
2023-05-01T08:32:22.959Z,28.20
2023-05-01T08:33:22.892Z,29.30
2023-05-01T08:34:22.885Z,27.90
2023-05-01T08:35:22.880Z,27.30
2023-05-01T08:36:22.838Z,26.30
2023-05-01T08:37:22.855Z,26.70
2023-05-01T08:38:22.822Z,26.10
2023-05-01T08:39:22.827Z,25.20
2023-05-01T08:40:22.831Z,26.70
2023-05-01T08:41:22.799Z,26.30
2023-05-01T08:42:22.771Z,25.70
2023-05-01T08:43:22.758Z,25.70
2023-05-01T08:44:22.779Z,24.60
2023-05-01T08:45:22.756Z,25.10
2023-05-01T08:46:22.731Z,25.80
2023-05-01T08:47:22.728Z,25.70
2023-05-01T08:48:22.719Z,26.40
2023-05-01T08:49:22.699Z,24.70
2023-05-01T08:50:22.978Z,27.60
2023-05-01T08:51:22.655Z,28.50
2023-05-01T08:52:22.673Z,28.90
2023-05-01T08:53:22.632Z,27.80
2023-05-01T08:54:22.656Z,32.00
2023-05-01T08:55:22.616Z,29.10
2023-05-01T08:56:22.581Z,29.20
2023-05-01T08:57:22.587Z,29.10
2023-05-01T08:58:22.576Z,28.50
2023-05-01T08:59:22.566Z,28.20
2023-05-01T09:00:22.620Z,27.70
2023-05-01T09:01:22.547Z,28.20
2023-05-01T09:02:22.566Z,28.30
2023-05-01T09:03:22.582Z,29.10
2023-05-01T09:04:22.548Z,28.10
2023-05-01T09:05:22.496Z,28.10
2023-05-01T09:06:22.494Z,28.10
2023-05-01T09:07:22.482Z,27.10
2023-05-01T09:08:22.444Z,25.70
2023-05-01T09:09:22.433Z,26.30
2023-05-01T09:10:22.402Z,25.10
2023-05-01T09:11:22.415Z,25.20
2023-05-01T09:12:22.383Z,25.20
2023-05-01T09:13:22.383Z,26.50
2023-05-01T09:14:22.367Z,25.30
2023-05-01T09:15:22.386Z,25.00
2023-05-01T09:16:22.353Z,25.00
2023-05-01T09:17:22.424Z,24.50
2023-05-01T09:18:22.359Z,24.90
2023-05-01T09:19:22.302Z,25.30
2023-05-01T09:20:22.301Z,23.90
2023-05-01T09:21:22.308Z,25.40
2023-05-01T09:22:22.237Z,24.80
2023-05-01T09:23:22.239Z,25.20
2023-05-01T09:24:22.268Z,25.30
2023-05-01T09:25:22.233Z,24.40
2023-05-01T09:26:22.200Z,24.10
2023-05-01T09:27:22.197Z,23.30
2023-05-01T09:28:22.174Z,23.50
2023-05-01T09:29:22.173Z,19.70
2023-05-01T09:30:22.141Z,20.30
2023-05-01T09:31:22.165Z,19.10
2023-05-01T09:32:22.231Z,16.00
2023-05-01T09:33:22.153Z,14.50
2023-05-01T09:34:22.102Z,15.60
2023-05-01T09:35:22.081Z,16.90
2023-05-01T09:36:22.076Z,16.80
2023-05-01T09:37:22.091Z,17.50
2023-05-01T09:38:22.096Z,17.20
2023-05-01T09:39:22.050Z,16.90
2023-05-01T09:40:22.036Z,16.10
2023-05-01T09:41:22.025Z,16.90
2023-05-01T09:42:21.994Z,15.40
2023-05-01T09:43:22.002Z,15.50
2023-05-01T09:44:21.972Z,16.00
2023-05-01T09:45:21.960Z,16.70
2023-05-01T09:46:21.969Z,15.80
2023-05-01T09:47:21.975Z,15.60
2023-05-01T09:48:21.906Z,15.30
2023-05-01T09:49:21.909Z,15.30
2023-05-01T09:50:21.889Z,15.10
2023-05-01T09:51:21.906Z,15.40
2023-05-01T09:52:21.859Z,14.20
2023-05-01T09:53:21.862Z,13.40
2023-05-01T09:54:21.843Z,12.90
2023-05-01T09:55:23.086Z,13.70
2023-05-01T09:56:21.830Z,13.40
2023-05-01T09:57:21.799Z,13.40
2023-05-01T09:58:21.785Z,12.70
2023-05-01T09:59:21.802Z,12.70
2023-05-01T10:00:21.775Z,14.40
2023-05-01T10:01:21.794Z,13.60
2023-05-01T10:02:21.816Z,13.70
2023-05-01T10:03:21.803Z,13.40
2023-05-01T10:04:21.749Z,12.80
2023-05-01T10:05:21.721Z,13.50
2023-05-01T10:06:21.767Z,12.40
2023-05-01T10:07:21.675Z,13.40
2023-05-01T10:08:21.651Z,12.70
2023-05-01T10:09:21.675Z,12.90
2023-05-01T10:10:21.653Z,12.30
2023-05-01T10:11:21.632Z,12.40
2023-05-01T10:12:21.616Z,12.70
2023-05-01T10:13:21.593Z,12.50
2023-05-01T10:14:21.597Z,11.70
2023-05-01T10:15:25.972Z,12.80
2023-05-01T10:16:22.618Z,12.30
2023-05-01T10:17:21.621Z,12.20
2023-05-01T10:18:21.703Z,12.00
2023-05-01T10:19:21.542Z,12.30
2023-05-01T10:20:21.522Z,12.30
2023-05-01T10:21:21.485Z,12.10
2023-05-01T10:22:21.499Z,11.90
2023-05-01T10:23:21.455Z,12.30
2023-05-01T10:24:21.504Z,11.70
2023-05-01T10:25:21.433Z,11.80
2023-05-01T10:26:21.429Z,11.40
2023-05-01T10:27:21.418Z,11.80
2023-05-01T10:28:21.397Z,11.30
2023-05-01T10:29:21.388Z,11.70
2023-05-01T10:30:21.393Z,10.50
2023-05-01T10:31:21.405Z,11.10
2023-05-01T10:32:21.352Z,11.20
2023-05-01T10:33:21.439Z,11.00
2023-05-01T10:34:21.348Z,11.00
2023-05-01T10:35:21.301Z,11.60
2023-05-01T10:36:21.292Z,11.00
2023-05-01T10:37:21.322Z,11.00
2023-05-01T10:38:21.279Z,11.50
2023-05-01T10:39:21.301Z,10.70
2023-05-01T10:40:21.249Z,10.40
2023-05-01T10:41:21.220Z,10.70
2023-05-01T10:42:21.207Z,9.80
2023-05-01T10:43:21.224Z,10.20
2023-05-01T10:44:21.209Z,10.20
2023-05-01T10:45:21.174Z,10.10
2023-05-01T10:46:21.319Z,10.30
2023-05-01T10:47:21.174Z,9.70
2023-05-01T10:48:21.140Z,9.60
2023-05-01T10:49:21.157Z,9.20
2023-05-01T10:50:21.105Z,9.80
2023-05-01T10:51:21.108Z,9.90
2023-05-01T10:52:21.101Z,9.50
2023-05-01T10:53:21.070Z,9.40
2023-05-01T10:54:21.082Z,9.50
2023-05-01T10:55:21.038Z,9.20
2023-05-01T10:56:21.019Z,9.60
2023-05-01T10:57:21.030Z,9.20
2023-05-01T10:58:21.006Z,9.10
2023-05-01T10:59:21.016Z,9.30
2023-05-01T11:00:20.981Z,8.90
2023-05-01T11:01:21.027Z,9.60
2023-05-01T11:02:20.988Z,9.60
2023-05-01T11:03:20.974Z,9.20
2023-05-01T11:04:20.941Z,10.30
2023-05-01T11:05:32.187Z,9.30
2023-05-01T11:06:22.002Z,9.90
2023-05-01T11:07:20.974Z,8.40
2023-05-01T11:08:20.901Z,8.30
2023-05-01T11:09:21.146Z,8.00
2023-05-01T11:10:20.854Z,8.20
2023-05-01T11:11:20.832Z,7.90
2023-05-01T11:12:20.826Z,9.10
2023-05-01T11:13:20.809Z,7.80
2023-05-01T11:14:20.838Z,7.80
2023-05-01T11:15:20.781Z,7.20
2023-05-01T11:16:20.905Z,7.70
2023-05-01T11:17:20.758Z,8.10
2023-05-01T11:18:20.759Z,7.90
2023-05-01T11:19:20.748Z,8.00
2023-05-01T11:20:20.719Z,7.90
2023-05-01T11:21:20.722Z,7.90
2023-05-01T11:22:20.733Z,7.60
2023-05-01T11:23:20.715Z,7.30
2023-05-01T11:24:20.712Z,6.90
2023-05-01T11:25:20.688Z,8.00
2023-05-01T11:26:20.652Z,7.40
2023-05-01T11:27:20.619Z,7.40
2023-05-01T11:28:20.644Z,7.20
2023-05-01T11:29:20.614Z,7.70
2023-05-01T11:30:20.599Z,6.80
2023-05-01T11:31:20.630Z,6.90
2023-05-01T11:32:20.770Z,6.90
2023-05-01T11:33:20.595Z,6.80
2023-05-01T11:34:20.573Z,7.10
2023-05-01T11:35:20.542Z,7.70
2023-05-01T11:36:20.509Z,7.40
2023-05-01T11:37:20.504Z,7.00
2023-05-01T11:38:20.496Z,6.80
2023-05-01T11:39:20.546Z,7.60
2023-05-01T11:40:20.473Z,7.00
2023-05-01T11:41:20.750Z,7.00
2023-05-01T11:42:20.528Z,7.70
2023-05-01T11:43:20.443Z,6.80
2023-05-01T11:44:20.456Z,7.10
2023-05-01T11:45:20.436Z,7.00
2023-05-01T11:46:20.438Z,7.40
2023-05-01T11:47:20.402Z,6.80
2023-05-01T11:48:20.522Z,7.00
2023-05-01T11:49:20.348Z,6.70
2023-05-01T11:50:20.350Z,7.10
2023-05-01T11:51:20.327Z,6.50
2023-05-01T11:52:20.305Z,7.00
2023-05-01T11:53:20.299Z,7.10
2023-05-01T11:54:20.310Z,6.20
2023-05-01T11:55:20.321Z,6.70
2023-05-01T11:56:26.512Z,7.00
2023-05-01T11:57:21.253Z,6.60
2023-05-01T11:58:20.252Z,6.90
2023-05-01T11:59:20.248Z,6.60
2023-05-01T12:00:20.220Z,7.00
2023-05-01T12:01:20.205Z,6.50
2023-05-01T12:02:20.294Z,7.00
2023-05-01T12:03:20.332Z,7.00
2023-05-01T12:04:20.264Z,6.40
2023-05-01T12:05:20.149Z,6.90
2023-05-01T12:06:20.166Z,6.60
2023-05-01T12:07:20.133Z,6.50
2023-05-01T12:08:20.102Z,6.70
2023-05-01T12:09:20.122Z,6.90
2023-05-01T12:10:20.093Z,7.00
2023-05-01T12:11:20.069Z,6.70
2023-05-01T12:12:20.059Z,7.00
2023-05-01T12:13:20.038Z,7.20
2023-05-01T12:14:20.038Z,7.10
2023-05-01T12:15:20.011Z,7.20
2023-05-01T12:16:20.050Z,6.90
2023-05-01T12:17:20.097Z,7.20
2023-05-01T12:18:20.005Z,7.00
2023-05-01T12:19:21.720Z,6.60
2023-05-01T12:20:19.947Z,6.60
2023-05-01T12:21:19.954Z,6.90
2023-05-01T12:22:19.925Z,6.90
2023-05-01T12:23:19.921Z,7.40
2023-05-01T12:24:19.907Z,7.30
2023-05-01T12:25:19.872Z,7.00
2023-05-01T12:26:19.885Z,6.80
2023-05-01T12:27:19.875Z,7.40
2023-05-01T12:28:20.097Z,7.20
2023-05-01T12:29:19.842Z,6.80
2023-05-01T12:30:19.859Z,6.90
2023-05-01T12:31:19.832Z,7.00
2023-05-01T12:32:19.819Z,6.70
2023-05-01T12:33:19.902Z,7.20
2023-05-01T12:34:19.781Z,7.20
2023-05-01T12:35:19.769Z,6.90
2023-05-01T12:36:19.733Z,6.90
2023-05-01T12:37:19.723Z,6.80
2023-05-01T12:38:19.730Z,6.80
2023-05-01T12:39:19.727Z,6.70
2023-05-01T12:40:19.718Z,6.30
2023-05-01T12:41:19.664Z,6.90
2023-05-01T12:42:19.666Z,6.60
2023-05-01T12:43:19.682Z,6.50
2023-05-01T12:44:19.641Z,6.70
2023-05-01T12:45:19.622Z,6.60
2023-05-01T12:46:19.663Z,6.30
2023-05-01T12:47:19.592Z,6.30
2023-05-01T12:48:19.708Z,6.00
2023-05-01T12:49:19.570Z,6.00
2023-05-01T12:50:19.564Z,6.40
2023-05-01T12:51:19.539Z,6.20
2023-05-01T12:52:19.535Z,6.10
2023-05-01T12:53:19.516Z,5.80
2023-05-01T12:54:19.503Z,5.40
2023-05-01T12:55:19.483Z,5.90
2023-05-01T12:56:19.505Z,5.20
2023-05-01T12:57:19.467Z,5.60
2023-05-01T12:58:19.474Z,5.10
2023-05-01T12:59:19.435Z,5.40
2023-05-01T13:00:19.444Z,5.50
2023-05-01T13:01:19.445Z,5.80
2023-05-01T13:02:19.549Z,5.70
2023-05-01T13:03:19.474Z,5.50
2023-05-01T13:04:19.424Z,5.10
2023-05-01T13:05:19.364Z,5.90